createdAt,value
2022-09-06T00:01:11.798Z,17.30
2022-09-06T00:03:38.861Z,17.30
2022-09-06T00:06:08.281Z,17.30
2022-09-06T00:08:34.927Z,17.30
2022-09-06T00:11:01.624Z,17.30
2022-09-06T00:13:28.435Z,17.30
2022-09-06T00:15:55.171Z,17.30
2022-09-06T00:18:22.086Z,17.20
2022-09-06T00:20:48.698Z,17.10
2022-09-06T00:23:15.288Z,17.00
2022-09-06T00:25:41.931Z,17.00
2022-09-06T00:28:08.550Z,17.00
2022-09-06T00:30:35.185Z,17.00
2022-09-06T00:33:01.782Z,17.00
2022-09-06T00:35:28.611Z,17.00
2022-09-06T00:37:59.653Z,17.00
2022-09-06T00:40:27.826Z,16.90
2022-09-06T00:42:54.424Z,16.90
2022-09-06T00:45:21.586Z,16.80
2022-09-06T00:47:48.763Z,16.80
2022-09-06T00:50:18.917Z,16.80
2022-09-06T00:52:48.613Z,16.70
2022-09-06T00:55:16.191Z,16.60
2022-09-06T00:57:43.534Z,16.50
2022-09-06T01:00:10.512Z,16.50
2022-09-06T01:02:37.411Z,16.50
2022-09-06T01:05:05.627Z,16.50
2022-09-06T01:07:35.632Z,16.50
2022-09-06T01:10:26.256Z,16.40
2022-09-06T01:13:11.578Z,16.40
2022-09-06T01:16:06.186Z,16.50
2022-09-06T01:18:42.021Z,16.50
2022-09-06T01:21:29.086Z,16.40
2022-09-06T01:24:32.981Z,16.30
2022-09-06T01:27:02.307Z,16.20
2022-09-06T01:29:39.178Z,16.20
2022-09-06T01:32:33.868Z,16.20
2022-09-06T01:35:29.581Z,16.20
2022-09-06T01:37:57.316Z,16.20
2022-09-06T01:40:23.932Z,16.20
2022-09-06T01:42:51.702Z,16.20
2022-09-06T01:45:23.411Z,16.30
2022-09-06T01:47:55.977Z,16.20
2022-09-06T01:51:05.791Z,16.20
2022-09-06T01:53:44.735Z,16.20
2022-09-06T01:56:45.156Z,16.20
2022-09-06T01:59:39.462Z,16.10
2022-09-06T02:02:19.060Z,16.00
2022-09-06T02:04:57.677Z,15.90
2022-09-06T02:07:27.790Z,15.80
2022-09-06T02:10:00.260Z,15.80
2022-09-06T02:12:30.168Z,15.80
2022-09-06T02:15:04.739Z,15.90
2022-09-06T02:17:34.395Z,15.90
2022-09-06T02:20:09.385Z,15.90
2022-09-06T02:22:41.596Z,15.90
2022-09-06T02:25:11.608Z,15.90
2022-09-06T02:27:38.221Z,15.90
2022-09-06T02:30:06.234Z,15.90
2022-09-06T02:32:37.863Z,15.80
2022-09-06T02:35:11.973Z,15.70
2022-09-06T02:37:38.776Z,15.60
2022-09-06T02:40:05.965Z,15.70
2022-09-06T02:42:32.803Z,15.70
2022-09-06T02:44:59.419Z,15.70
2022-09-06T02:47:26.037Z,15.70
2022-09-06T02:49:52.645Z,15.50
2022-09-06T02:52:19.227Z,15.60
2022-09-06T02:54:45.826Z,15.60
2022-09-06T02:57:12.434Z,15.50
2022-09-06T02:59:39.039Z,15.50
2022-09-06T03:02:05.730Z,15.50
2022-09-06T03:04:32.375Z,15.50
2022-09-06T03:06:59.031Z,15.50
2022-09-06T03:09:25.769Z,15.40
2022-09-06T03:11:52.426Z,15.20
2022-09-06T03:14:19.023Z,15.20
2022-09-06T03:16:45.750Z,15.20
2022-09-06T03:19:12.400Z,15.10
2022-09-06T03:21:38.999Z,15.10
2022-09-06T03:24:05.823Z,15.10
2022-09-06T03:26:32.426Z,15.20
2022-09-06T03:28:59.038Z,15.10
2022-09-06T03:31:25.629Z,15.00
2022-09-06T03:33:52.210Z,15.10
2022-09-06T03:36:18.797Z,15.00
2022-09-06T03:38:45.452Z,15.00
2022-09-06T03:41:12.187Z,15.10
2022-09-06T03:43:38.777Z,15.10
2022-09-06T03:46:05.555Z,15.10
2022-09-06T03:48:32.210Z,15.10
2022-09-06T03:50:59.286Z,15.20
2022-09-06T03:53:28.159Z,15.20
2022-09-06T03:55:56.616Z,15.20
2022-09-06T03:58:24.568Z,15.10
2022-09-06T04:01:00.846Z,15.00
2022-09-06T04:03:27.494Z,15.00
2022-09-06T04:05:54.101Z,15.00
2022-09-06T04:08:20.744Z,15.00
2022-09-06T04:10:50.584Z,15.00
2022-09-06T04:13:17.369Z,14.90
2022-09-06T04:15:47.423Z,14.90
2022-09-06T04:18:14.650Z,14.90
2022-09-06T04:20:41.787Z,14.90
2022-09-06T04:23:08.953Z,14.90
2022-09-06T04:25:35.579Z,14.80
2022-09-06T04:28:02.477Z,14.80
2022-09-06T04:30:29.137Z,14.80
2022-09-06T04:32:55.774Z,14.90
2022-09-06T04:35:22.395Z,14.90
2022-09-06T04:37:49.012Z,14.90
2022-09-06T04:40:15.678Z,14.90
2022-09-06T04:42:42.282Z,14.80
2022-09-06T04:45:09.507Z,14.80
2022-09-06T04:47:36.174Z,14.80
2022-09-06T04:50:03.037Z,14.80
2022-09-06T04:52:30.439Z,14.80
2022-09-06T04:54:57.112Z,14.80
2022-09-06T04:57:23.704Z,14.80
2022-09-06T04:59:50.310Z,14.70
2022-09-06T05:02:16.955Z,14.70
2022-09-06T05:04:43.558Z,14.70
2022-09-06T05:07:10.239Z,14.70
2022-09-06T05:09:36.842Z,14.60
2022-09-06T05:12:03.977Z,14.70
2022-09-06T05:14:30.591Z,14.80
2022-09-06T05:16:57.404Z,14.90
2022-09-06T05:19:24.096Z,14.90
2022-09-06T05:21:51.671Z,15.00
2022-09-06T05:24:18.355Z,15.00
2022-09-06T05:26:44.976Z,15.10
2022-09-06T05:29:11.696Z,15.20
2022-09-06T05:31:38.316Z,15.20
2022-09-06T05:34:04.937Z,15.40
2022-09-06T05:36:31.892Z,15.50
2022-09-06T05:38:59.187Z,15.50
2022-09-06T05:41:26.507Z,15.60
2022-09-06T05:43:53.170Z,15.70
2022-09-06T05:46:19.794Z,15.80
2022-09-06T05:48:55.392Z,15.80
2022-09-06T05:51:21.981Z,15.60
2022-09-06T05:53:48.625Z,15.50
2022-09-06T05:56:15.959Z,15.50
2022-09-06T05:58:42.865Z,15.60
2022-09-06T06:01:20.497Z,15.70
2022-09-06T06:03:55.228Z,15.80
2022-09-06T06:06:23.092Z,15.90
2022-09-06T06:08:49.935Z,16.00
2022-09-06T06:11:17.103Z,16.20
2022-09-06T06:13:44.201Z,16.50
2022-09-06T06:16:12.884Z,16.70
2022-09-06T06:18:40.352Z,17.00
2022-09-06T06:21:11.346Z,17.20
2022-09-06T06:23:38.580Z,17.40
2022-09-06T06:26:06.533Z,17.60
2022-09-06T06:28:33.745Z,17.80
2022-09-06T06:31:00.329Z,17.90
2022-09-06T06:33:26.925Z,18.00
2022-09-06T06:36:24.271Z,18.00
2022-09-06T06:38:53.437Z,18.10
2022-09-06T06:41:22.309Z,18.10
2022-09-06T06:43:50.667Z,18.10
2022-09-06T06:46:19.105Z,18.00
2022-09-06T06:48:48.630Z,17.90
2022-09-06T06:51:19.528Z,17.80
2022-09-06T06:53:47.385Z,17.70
2022-09-06T06:56:24.178Z,17.60
2022-09-06T06:58:53.036Z,17.50
2022-09-06T07:01:21.750Z,17.30
2022-09-06T07:03:49.173Z,17.10
2022-09-06T07:06:16.532Z,16.90
2022-09-06T07:08:43.412Z,16.80
2022-09-06T07:11:12.013Z,16.80
2022-09-06T07:13:39.181Z,16.80
2022-09-06T07:16:19.112Z,16.80
2022-09-06T07:18:45.819Z,16.80
2022-09-06T07:26:31.236Z,16.80
2022-09-06T07:29:01.343Z,16.70
2022-09-06T07:34:15.854Z,16.80
2022-09-06T07:36:42.451Z,16.80
2022-09-06T07:39:09.058Z,17.00
2022-09-06T07:41:35.667Z,17.10
2022-09-06T07:44:02.466Z,17.20
2022-09-06T07:46:29.129Z,17.30
2022-09-06T07:48:55.813Z,17.40
2022-09-06T07:51:22.592Z,17.40
2022-09-06T07:53:57.980Z,17.60
2022-09-06T07:56:29.034Z,17.70
2022-09-06T07:58:55.663Z,17.80
2022-09-06T08:01:33.623Z,17.90
2022-09-06T08:04:26.384Z,18.00
2022-09-06T08:09:39.585Z,18.10
2022-09-06T08:12:06.591Z,18.20
2022-09-06T08:14:34.297Z,18.30
2022-09-06T08:17:01.037Z,18.30
2022-09-06T08:19:28.451Z,18.30
2022-09-06T08:21:55.296Z,18.40
2022-09-06T08:24:21.949Z,18.50
2022-09-06T08:26:48.557Z,18.60
2022-09-06T08:29:15.178Z,18.70
2022-09-06T08:31:43.912Z,18.80
2022-09-06T08:34:11.363Z,18.90
2022-09-06T08:36:38.012Z,19.10
2022-09-06T08:39:06.864Z,19.20
2022-09-06T08:41:37.677Z,19.20
2022-09-06T08:47:10.058Z,19.40
2022-09-06T08:49:47.737Z,19.50
2022-09-06T08:52:22.651Z,19.70
2022-09-06T08:55:04.295Z,19.80
2022-09-06T08:57:40.419Z,19.80
2022-09-06T09:00:11.075Z,19.90
2022-09-06T09:02:48.918Z,20.00
2022-09-06T09:05:23.803Z,20.10
2022-09-06T09:08:00.651Z,20.20
2022-09-06T09:10:31.548Z,20.60
2022-09-06T09:13:02.405Z,20.70
2022-09-06T09:15:29.265Z,20.80
2022-09-06T09:17:55.982Z,20.80
2022-09-06T09:20:23.047Z,21.00
2022-09-06T09:22:49.709Z,21.10
2022-09-06T09:25:23.103Z,21.30
2022-09-06T09:27:52.917Z,21.40
2022-09-06T09:33:22.567Z,21.60
2022-09-06T09:35:49.484Z,21.80
2022-09-06T09:38:26.565Z,22.00
2022-09-06T09:40:53.160Z,22.00
2022-09-06T09:43:25.435Z,22.20
2022-09-06T09:46:13.673Z,22.40
2022-09-06T09:49:01.633Z,22.40
2022-09-06T09:51:29.163Z,22.60
2022-09-06T09:53:58.155Z,22.50
2022-09-06T09:56:51.225Z,22.60
2022-09-06T09:59:26.702Z,22.70
2022-09-06T10:02:01.258Z,22.80
2022-09-06T10:04:44.860Z,22.90
2022-09-06T10:07:16.116Z,23.00
2022-09-06T10:09:46.215Z,23.30
2022-09-06T10:12:17.711Z,23.50
2022-09-06T10:14:49.319Z,23.80
2022-09-06T10:17:33.780Z,24.00
2022-09-06T10:20:07.763Z,24.30
2022-09-06T10:23:04.184Z,24.30
2022-09-06T10:25:49.129Z,24.30
2022-09-06T10:28:35.691Z,24.10
2022-09-06T10:31:29.185Z,24.30
2022-09-06T10:34:33.503Z,24.50
2022-09-06T10:37:41.662Z,24.80
2022-09-06T10:40:10.150Z,25.20
2022-09-06T10:42:46.942Z,25.30
2022-09-06T10:45:21.170Z,25.40
2022-09-06T10:48:05.996Z,25.40
2022-09-06T10:50:39.887Z,25.40
2022-09-06T10:53:42.115Z,25.20
2022-09-06T10:56:13.297Z,25.30
2022-09-06T11:02:11.177Z,25.30
2022-09-06T11:07:31.407Z,25.40
2022-09-06T11:10:03.403Z,25.40
2022-09-06T11:12:37.527Z,25.40
2022-09-06T11:15:06.542Z,25.50
2022-09-06T11:17:44.464Z,25.70
2022-09-06T11:20:27.472Z,26.00
2022-09-06T11:23:27.741Z,26.20
2022-09-06T11:26:07.922Z,26.50
2022-09-06T11:28:43.474Z,26.60
2022-09-06T11:34:06.207Z,27.00
2022-09-06T11:36:37.430Z,27.00
2022-09-06T11:39:06.818Z,26.80
2022-09-06T11:41:41.923Z,26.70
2022-09-06T11:44:10.268Z,26.70
2022-09-06T11:46:56.832Z,26.60
2022-09-06T11:49:34.839Z,26.40
2022-09-06T11:52:01.818Z,26.60
2022-09-06T11:54:41.974Z,26.90
2022-09-06T11:57:14.337Z,27.00
2022-09-06T11:59:47.053Z,27.00
2022-09-06T12:02:33.079Z,27.20
2022-09-06T12:05:02.476Z,27.40
2022-09-06T12:07:34.084Z,27.30
2022-09-06T12:10:31.411Z,27.50
2022-09-06T12:12:58.650Z,27.50
2022-09-06T12:15:28.221Z,27.60
2022-09-06T12:17:55.607Z,27.80
2022-09-06T12:20:49.963Z,27.90
2022-09-06T12:23:46.179Z,27.90
2022-09-06T12:26:12.808Z,27.70
2022-09-06T12:28:44.847Z,28.00
2022-09-06T12:31:33.284Z,28.20
2022-09-06T12:34:11.851Z,28.20
2022-09-06T12:36:49.595Z,27.90
2022-09-06T12:39:16.360Z,27.70
2022-09-06T12:41:47.249Z,27.60
2022-09-06T12:44:15.761Z,27.40
2022-09-06T12:46:49.614Z,27.40
2022-09-06T12:49:20.575Z,27.30
2022-09-06T12:51:47.868Z,27.10
2022-09-06T12:54:25.722Z,27.10
2022-09-06T12:56:53.292Z,26.90
2022-09-06T12:59:24.776Z,26.70
2022-09-06T13:01:55.380Z,26.70
2022-09-06T13:04:32.990Z,26.60
2022-09-06T13:07:02.461Z,26.40
2022-09-06T13:09:30.068Z,26.40
2022-09-06T13:12:23.504Z,26.40
2022-09-06T13:14:54.351Z,26.40
2022-09-06T13:17:26.775Z,26.40
2022-09-06T13:19:53.904Z,26.40
2022-09-06T13:22:41.060Z,26.40
2022-09-06T13:25:18.631Z,26.40
2022-09-06T13:27:49.307Z,26.40
2022-09-06T13:30:35.710Z,26.30
2022-09-06T13:33:04.131Z,26.40
2022-09-06T13:35:33.947Z,26.50
2022-09-06T13:38:20.275Z,26.50
2022-09-06T13:41:10.097Z,26.50
2022-09-06T13:43:46.537Z,26.60
2022-09-06T13:46:13.860Z,26.60
2022-09-06T13:48:40.692Z,26.70
2022-09-06T13:51:09.072Z,26.80
2022-09-06T13:53:36.180Z,26.90
2022-09-06T13:56:03.187Z,27.00
2022-09-06T13:58:29.939Z,27.00
2022-09-06T14:00:58.215Z,27.20
2022-09-06T14:03:36.697Z,27.40
2022-09-06T14:06:03.664Z,27.50
2022-09-06T14:08:43.800Z,27.40
2022-09-06T14:11:18.172Z,27.30
2022-09-06T14:13:44.805Z,27.10
2022-09-06T14:16:11.749Z,27.00
2022-09-06T14:18:38.446Z,27.10
2022-09-06T14:21:05.259Z,27.00
2022-09-06T14:23:31.882Z,27.00
2022-09-06T14:26:00.330Z,26.90
2022-09-06T14:28:27.697Z,27.00
2022-09-06T14:30:54.566Z,27.00
2022-09-06T14:33:21.235Z,27.00
2022-09-06T14:35:48.909Z,27.00
2022-09-06T14:38:15.862Z,26.80
2022-09-06T14:40:42.586Z,26.70
2022-09-06T14:43:09.517Z,26.60
2022-09-06T14:45:36.391Z,26.50
2022-09-06T14:48:03.327Z,26.40
2022-09-06T14:50:30.356Z,26.20
2022-09-06T14:52:57.197Z,26.30
2022-09-06T14:55:23.850Z,26.20
2022-09-06T14:57:50.470Z,26.20
2022-09-06T15:00:17.162Z,26.10
2022-09-06T15:02:43.816Z,26.10
2022-09-06T15:05:10.500Z,26.10
2022-09-06T15:07:37.118Z,26.10
2022-09-06T15:10:04.377Z,26.10
2022-09-06T15:12:30.971Z,26.10
2022-09-06T15:14:57.580Z,26.10
2022-09-06T15:17:24.177Z,26.10
2022-09-06T15:19:50.745Z,26.00
2022-09-06T15:22:17.341Z,26.00
2022-09-06T15:24:43.919Z,26.00
2022-09-06T15:27:10.518Z,25.90
2022-09-06T15:29:37.124Z,26.00
2022-09-06T15:32:03.728Z,25.80
2022-09-06T15:34:30.319Z,25.80
2022-09-06T15:36:57.025Z,25.80
2022-09-06T15:39:23.630Z,25.80
2022-09-06T15:41:50.718Z,25.70
2022-09-06T15:44:19.583Z,25.70
2022-09-06T15:46:55.948Z,25.80
2022-09-06T15:49:28.089Z,25.70
2022-09-06T15:51:56.735Z,25.70
2022-09-06T15:54:23.321Z,25.80
2022-09-06T15:56:49.925Z,25.80
2022-09-06T15:59:16.533Z,25.70
2022-09-06T16:01:43.199Z,25.70
2022-09-06T16:04:10.009Z,25.60
2022-09-06T16:06:39.486Z,25.60
2022-09-06T16:09:08.572Z,25.40
2022-09-06T16:11:36.341Z,25.40
2022-09-06T16:14:05.232Z,25.30
2022-09-06T16:16:32.271Z,25.30
2022-09-06T16:18:58.933Z,25.10
2022-09-06T16:21:28.247Z,25.10
2022-09-06T16:24:00.666Z,25.10
2022-09-06T16:26:36.943Z,25.10
2022-09-06T16:29:05.517Z,25.00
2022-09-06T16:31:35.320Z,24.90
2022-09-06T16:34:04.370Z,24.90
2022-09-06T16:36:30.982Z,24.80
2022-09-06T16:38:57.727Z,24.90
2022-09-06T16:41:26.076Z,24.90
2022-09-06T16:43:53.333Z,24.90
2022-09-06T16:46:22.030Z,24.90
2022-09-06T16:48:56.674Z,24.90
2022-09-06T16:51:25.166Z,24.90
2022-09-06T16:53:52.350Z,24.90
2022-09-06T16:56:27.785Z,24.90
2022-09-06T16:58:57.290Z,24.90
2022-09-06T17:01:25.421Z,24.80
2022-09-06T17:03:52.468Z,24.70
2022-09-06T17:06:20.260Z,24.60
2022-09-06T17:08:47.580Z,24.60
2022-09-06T17:11:19.629Z,24.40
2022-09-06T17:13:49.169Z,24.40
2022-09-06T17:16:20.016Z,24.30
2022-09-06T17:18:48.759Z,24.30
2022-09-06T17:21:15.469Z,24.20
2022-09-06T17:23:42.061Z,24.10
2022-09-06T17:26:08.655Z,24.10
2022-09-06T17:28:37.239Z,23.90
2022-09-06T17:31:05.518Z,23.90
2022-09-06T17:33:33.342Z,23.90
2022-09-06T17:36:11.943Z,23.80
2022-09-06T17:38:39.554Z,23.70
2022-09-06T17:41:06.831Z,23.60
2022-09-06T17:43:36.411Z,23.50
2022-09-06T17:46:04.304Z,23.40
2022-09-06T17:48:31.127Z,23.30
2022-09-06T17:51:05.512Z,23.20
2022-09-06T17:53:32.382Z,23.00
2022-09-06T17:56:03.680Z,23.00
2022-09-06T17:58:30.421Z,22.90
2022-09-06T18:00:57.163Z,22.90
2022-09-06T18:03:23.866Z,22.80
2022-09-06T18:05:50.479Z,22.70
2022-09-06T18:08:17.152Z,22.70
2022-09-06T18:10:43.785Z,22.60
2022-09-06T18:13:10.384Z,22.60
2022-09-06T18:15:39.431Z,22.50
2022-09-06T18:18:06.458Z,22.40
2022-09-06T18:20:33.038Z,22.30
2022-09-06T18:22:59.633Z,22.30
2022-09-06T18:25:26.201Z,22.20
2022-09-06T18:27:52.832Z,22.20
2022-09-06T18:30:19.449Z,22.10
2022-09-06T18:32:46.052Z,22.00
2022-09-06T18:35:12.693Z,21.90
2022-09-06T18:37:39.334Z,21.90
2022-09-06T18:40:06.606Z,21.90
2022-09-06T18:42:33.586Z,21.80
2022-09-06T18:45:00.179Z,21.80
2022-09-06T18:47:26.781Z,21.70
2022-09-06T18:49:53.390Z,21.60
2022-09-06T18:52:20.037Z,21.60
2022-09-06T18:54:46.671Z,21.50
2022-09-06T18:57:13.263Z,21.50
2022-09-06T18:59:39.852Z,21.40
2022-09-06T19:02:06.519Z,21.30
2022-09-06T19:04:33.217Z,21.20
2022-09-06T19:07:01.878Z,21.20
2022-09-06T19:09:28.500Z,21.20
2022-09-06T19:11:55.117Z,21.10
2022-09-06T19:14:21.794Z,21.10
2022-09-06T19:16:48.683Z,21.00
2022-09-06T19:19:15.398Z,21.00
2022-09-06T19:21:42.657Z,21.00
2022-09-06T19:24:11.477Z,21.10
2022-09-06T19:26:41.012Z,21.00
2022-09-06T19:29:14.905Z,21.00
2022-09-06T19:31:42.398Z,20.90
2022-09-06T19:34:09.141Z,20.80
2022-09-06T19:36:36.067Z,20.70
2022-09-06T19:39:06.643Z,20.60
2022-09-06T19:41:36.797Z,20.60
2022-09-06T19:44:04.339Z,20.50
2022-09-06T19:46:31.010Z,20.40
2022-09-06T19:48:57.671Z,20.40
2022-09-06T19:51:24.641Z,20.30
2022-09-06T19:53:53.729Z,20.20
2022-09-06T19:56:26.343Z,20.30
2022-09-06T19:58:58.619Z,20.20
2022-09-06T20:01:27.324Z,20.10
2022-09-06T20:03:54.005Z,20.00
2022-09-06T20:06:20.834Z,20.10
2022-09-06T20:08:50.341Z,20.10
2022-09-06T20:11:17.439Z,20.20
2022-09-06T20:13:44.187Z,20.10
2022-09-06T20:16:11.586Z,20.00
2022-09-06T20:18:38.238Z,20.00
2022-09-06T20:21:05.853Z,19.90
2022-09-06T20:23:33.313Z,19.80
2022-09-06T20:26:02.327Z,19.80
2022-09-06T20:28:29.220Z,19.80
2022-09-06T20:31:04.742Z,19.70
2022-09-06T20:33:31.421Z,19.70
2022-09-06T20:36:03.832Z,19.60
2022-09-06T20:38:35.602Z,19.60
2022-09-06T20:41:04.923Z,19.50
2022-09-06T20:43:33.017Z,19.40
2022-09-06T20:46:00.667Z,19.50
2022-09-06T20:48:27.391Z,19.40
2022-09-06T20:51:01.954Z,19.40
2022-09-06T20:53:30.362Z,19.40
2022-09-06T20:56:05.590Z,19.40
2022-09-06T20:58:33.165Z,19.40
2022-09-06T21:01:00.995Z,19.40
2022-09-06T21:03:27.647Z,19.30
2022-09-06T21:05:54.514Z,19.20
2022-09-06T21:08:21.257Z,19.20
2022-09-06T21:10:47.887Z,19.20
2022-09-06T21:13:14.502Z,19.20
2022-09-06T21:15:41.110Z,19.20
2022-09-06T21:18:09.076Z,19.20
2022-09-06T21:20:36.268Z,19.20
2022-09-06T21:23:03.662Z,19.10
2022-09-06T21:25:30.255Z,19.10
2022-09-06T21:27:56.861Z,19.10
2022-09-06T21:30:23.464Z,19.00
2022-09-06T21:32:53.727Z,18.90
2022-09-06T21:35:20.374Z,18.90
2022-09-06T21:37:46.993Z,18.90
2022-09-06T21:40:13.609Z,18.90
2022-09-06T21:42:40.255Z,18.90
2022-09-06T21:45:07.159Z,18.90
2022-09-06T21:47:33.746Z,18.90
2022-09-06T21:50:00.315Z,18.80
2022-09-06T21:52:26.910Z,18.70
2022-09-06T21:54:53.493Z,18.60
2022-09-06T21:57:20.105Z,18.50
2022-09-06T21:59:46.757Z,18.60
2022-09-06T22:02:13.400Z,18.60
2022-09-06T22:04:40.682Z,18.60
2022-09-06T22:07:07.260Z,18.60
2022-09-06T22:09:33.886Z,18.60
2022-09-06T22:12:00.510Z,18.60
2022-09-06T22:14:27.184Z,18.60
2022-09-06T22:16:53.781Z,18.60
2022-09-06T22:19:20.386Z,18.60
2022-09-06T22:21:46.959Z,18.50
2022-09-06T22:24:15.964Z,18.40
2022-09-06T22:26:42.930Z,18.40
2022-09-06T22:29:11.580Z,18.40
2022-09-06T22:31:38.310Z,18.40
2022-09-06T22:34:05.534Z,18.30
2022-09-06T22:36:32.775Z,18.40
2022-09-06T22:38:59.471Z,18.40
2022-09-06T22:41:28.452Z,18.40
2022-09-06T22:43:55.520Z,18.40
2022-09-06T22:46:22.387Z,18.40
2022-09-06T22:48:49.013Z,18.40
2022-09-06T22:51:15.715Z,18.40
2022-09-06T22:53:42.289Z,18.50
2022-09-06T22:56:09.049Z,18.50
2022-09-06T22:58:35.632Z,18.50
2022-09-06T23:01:10.894Z,18.40
2022-09-06T23:03:37.720Z,18.40
2022-09-06T23:06:04.605Z,18.40
2022-09-06T23:08:32.125Z,18.50
2022-09-06T23:11:07.486Z,18.40
2022-09-06T23:13:34.575Z,18.40
2022-09-06T23:16:08.696Z,18.30
2022-09-06T23:18:35.552Z,18.30
2022-09-06T23:21:17.062Z,18.30
2022-09-06T23:23:44.175Z,18.30
2022-09-06T23:26:13.121Z,18.30
2022-09-06T23:28:39.812Z,18.30
2022-09-06T23:31:08.837Z,18.30
2022-09-06T23:33:36.132Z,18.20
2022-09-06T23:36:04.684Z,18.20
2022-09-06T23:38:35.380Z,18.30
2022-09-06T23:41:03.027Z,18.30
2022-09-06T23:43:29.891Z,18.30
2022-09-06T23:45:56.484Z,18.30
2022-09-06T23:48:23.172Z,18.30
2022-09-06T23:50:49.974Z,18.30
2022-09-06T23:53:17.961Z,18.30
2022-09-06T23:55:44.898Z,18.20
2022-09-06T23:58:12.200Z,18.10
